Time;durP1;ratioP1;P1;durP2;ratioP2;P2;SDS_P1;SDS_P2;PMS_P1;PMS_P2;Temp;Humidity;BMP_temperature;BMP_pressure;BME280_temperature;BME280_humidity;BME280_pressure;Samples;Min_cycle;Max_cycle;Signal;HPM_P1;HPM_P2
2023/09/04 00:00:20;;;;;;;57.57;2.90;;;;;;;;;;5074108;28;20481;-69
2023/09/04 00:02:48;;;;;;;56.90;2.70;;;;;;;;;;5073670;28;20939;-68
2023/09/04 00:05:17;;;;;;;56.47;2.20;;;;;;;;;;5073774;28;20997;-69
2023/09/04 00:07:44;;;;;;;56.87;2.60;;;;;;;;;;5073827;28;20530;-69
2023/09/04 00:10:12;;;;;;;56.57;2.60;;;;;;;;;;5073778;28;20451;-68
2023/09/04 00:12:39;;;;;;;56.90;2.70;;;;;;;;;;5073613;28;20448;-68
2023/09/04 00:15:08;;;;;;;56.83;2.90;;;;;;;;;;5073624;28;20469;-69
2023/09/04 00:17:36;;;;;;;56.87;2.50;;;;;;;;;;5074521;28;20451;-70
2023/09/04 00:20:03;;;;;;;56.77;2.50;;;;;;;;;;5068042;28;20519;-68
2023/09/04 00:22:31;;;;;;;56.87;2.40;;;;;;;;;;5053271;28;20447;-69
2023/09/04 00:24:58;;;;;;;56.83;2.43;;;;;;;;;;5053438;28;20979;-68
2023/09/04 00:27:26;;;;;;;59.13;3.20;;;;;;;;;;5053819;28;20452;-69
2023/09/04 00:29:53;;;;;;;57.33;3.17;;;;;;;;;;5053553;28;21223;-69
2023/09/04 00:32:21;;;;;;;57.00;2.83;;;;;;;;;;5053544;28;20450;-69
2023/09/04 00:34:48;;;;;;;57.10;2.50;;;;;;;;;;5053645;28;20848;-68
2023/09/04 00:37:16;;;;;;;56.87;2.60;;;;;;;;;;5053311;28;20455;-69
2023/09/04 00:39:43;;;;;;;56.87;2.57;;;;;;;;;;5052974;28;20462;-68
2023/09/04 00:42:10;;;;;;;56.90;2.67;;;;;;;;;;5053191;28;20440;-69
2023/09/04 00:44:37;;;;;;;57.07;2.70;;;;;;;;;;5053228;28;20792;-69
2023/09/04 00:47:05;;;;;;;56.97;3.20;;;;;;;;;;5053586;28;20484;-69
2023/09/04 00:49:34;;;;;;;57.30;2.87;;;;;;;;;;5053344;28;20452;-70
2023/09/04 00:52:01;;;;;;;56.80;2.50;;;;;;;;;;5057484;28;20452;-69
2023/09/04 00:54:28;;;;;;;57.17;2.90;;;;;;;;;;5072585;28;20465;-73
2023/09/04 00:56:55;;;;;;;56.80;2.70;;;;;;;;;;5072912;28;20458;-69
2023/09/04 00:59:25;;;;;;;56.77;2.50;;;;;;;;;;5073225;28;20452;-70
2023/09/04 01:01:52;;;;;;;56.80;2.77;;;;;;;;;;5072732;28;21040;-70
2023/09/04 01:04:20;;;;;;;56.97;2.60;;;;;;;;;;5073189;28;20450;-69
2023/09/04 01:06:48;;;;;;;56.83;2.60;;;;;;;;;;5072946;28;21055;-70
2023/09/04 01:09:16;;;;;;;56.53;2.50;;;;;;;;;;5072461;28;20446;-70
2023/09/04 01:11:48;;;;;;;56.67;2.67;;;;;;;;;;5072920;28;20443;-70
2023/09/04 01:14:17;;;;;;;56.87;2.67;;;;;;;;;;5072900;28;20852;-70
2023/09/04 01:16:44;;;;;;;56.73;2.40;;;;;;;;;;5072765;28;20448;-69
2023/09/04 01:19:12;;;;;;;56.80;2.80;;;;;;;;;;5072878;28;20448;-69
2023/09/04 01:21:40;;;;;;;56.80;3.10;;;;;;;;;;5072323;28;20490;-71
2023/09/04 01:24:08;;;;;;;56.57;2.73;;;;;;;;;;5067402;28;20465;-70
2023/09/04 01:26:38;;;;;;;56.47;2.30;;;;;;;;;;5069515;28;20822;-69
2023/09/04 01:29:07;;;;;;;56.97;2.90;;;;;;;;;;5069743;28;20572;-69
2023/09/04 01:31:35;;;;;;;56.67;2.30;;;;;;;;;;5072284;28;20519;-70
2023/09/04 01:34:08;;;;;;;57.33;2.97;;;;;;;;;;5069756;28;20483;-71
2023/09/04 01:36:36;;;;;;;57.03;2.63;;;;;;;;;;5072158;28;20459;-72
2023/09/04 01:39:05;;;;;;;57.30;3.20;;;;;;;;;;5072066;28;20940;-71
2023/09/04 01:41:32;;;;;;;57.17;2.43;;;;;;;;;;5069385;28;20537;-77
2023/09/04 01:43:59;;;;;;;56.67;2.60;;;;;;;;;;5071913;28;20960;-72
2023/09/04 01:46:26;;;;;;;57.50;3.47;;;;;;;;;;5072301;28;20887;-70
2023/09/04 01:48:53;;;;;;;57.00;2.60;;;;;;;;;;5072200;28;20448;-68
2023/09/04 01:51:21;;;;;;;56.90;2.50;;;;;;;;;;5072121;28;20446;-70
2023/09/04 01:53:48;;;;;;;56.73;2.40;;;;;;;;;;5071682;28;20840;-68
2023/09/04 01:56:16;;;;;;;56.37;2.47;;;;;;;;;;5070484;28;20506;-68
2023/09/04 01:58:43;;;;;;;58.00;3.33;;;;;;;;;;5072125;28;20804;-69
2023/09/04 02:01:10;;;;;;;56.80;2.60;;;;;;;;;;5072083;28;20489;-69
2023/09/04 02:03:38;;;;;;;56.90;2.60;;;;;;;;;;5071759;28;20627;-69
2023/09/04 02:06:06;;;;;;;56.83;2.37;;;;;;;;;;5070944;28;20558;-68
2023/09/04 02:08:33;;;;;;;56.53;2.33;;;;;;;;;;5071768;28;20451;-69
2023/09/04 02:11:01;;;;;;;56.80;2.70;;;;;;;;;;5071764;28;20447;-69
2023/09/04 02:13:30;;;;;;;57.10;2.70;;;;;;;;;;5071763;28;20827;-70
2023/09/04 02:15:57;;;;;;;56.47;2.30;;;;;;;;;;5071625;28;20471;-68
2023/09/04 02:18:24;;;;;;;56.67;2.40;;;;;;;;;;5071567;28;21071;-68
2023/09/04 02:20:51;;;;;;;56.90;2.60;;;;;;;;;;5071481;28;20487;-68
2023/09/04 02:23:18;;;;;;;57.60;3.90;;;;;;;;;;5071121;28;20440;-68
2023/09/04 02:25:47;;;;;;;56.63;2.40;;;;;;;;;;5071121;28;20478;-68
2023/09/04 02:28:14;;;;;;;56.97;2.87;;;;;;;;;;5069318;28;20816;-71
2023/09/04 02:30:43;;;;;;;56.77;2.70;;;;;;;;;;5071574;28;20440;-68
2023/09/04 02:33:10;;;;;;;56.53;2.43;;;;;;;;;;5071011;28;20890;-68
2023/09/04 02:35:37;;;;;;;56.90;2.80;;;;;;;;;;5071141;28;20464;-68
2023/09/04 02:38:04;;;;;;;56.53;2.37;;;;;;;;;;5070905;28;20879;-69
2023/09/04 02:40:31;;;;;;;56.67;2.50;;;;;;;;;;5071541;28;20449;-69
2023/09/04 02:42:58;;;;;;;56.80;2.83;;;;;;;;;;5070936;28;20699;-69
2023/09/04 02:45:26;;;;;;;56.67;2.80;;;;;;;;;;5070950;28;20463;-69
2023/09/04 02:47:54;;;;;;;56.80;2.77;;;;;;;;;;5071014;28;20958;-71
2023/09/04 02:50:21;;;;;;;57.20;2.90;;;;;;;;;;5070909;28;20457;-69
2023/09/04 02:52:48;;;;;;;56.97;2.80;;;;;;;;;;5071080;28;20447;-69
2023/09/04 02:55:15;;;;;;;56.63;2.40;;;;;;;;;;5071060;28;20839;-68
2023/09/04 02:57:43;;;;;;;56.93;2.60;;;;;;;;;;5070999;28;20932;-69
2023/09/04 03:00:10;;;;;;;57.07;2.70;;;;;;;;;;5061352;28;20475;-69
2023/09/04 03:02:38;;;;;;;57.27;3.00;;;;;;;;;;5050502;28;20899;-70
2023/09/04 03:05:08;;;;;;;60.00;2.90;;;;;;;;;;5050519;28;20464;-72
2023/09/04 03:07:35;;;;;;;57.00;2.63;;;;;;;;;;5050888;28;20484;-69
2023/09/04 03:10:02;;;;;;;56.77;2.40;;;;;;;;;;5050903;28;20440;-69
2023/09/04 03:12:31;;;;;;;56.80;2.90;;;;;;;;;;5050445;28;20454;-73
2023/09/04 03:14:59;;;;;;;56.70;2.60;;;;;;;;;;5050795;28;20464;-69
2023/09/04 03:17:27;;;;;;;56.90;2.77;;;;;;;;;;5050377;28;20440;-70
2023/09/04 03:19:55;;;;;;;56.57;2.43;;;;;;;;;;5050593;28;20440;-71
2023/09/04 03:22:23;;;;;;;56.90;2.70;;;;;;;;;;5050536;28;20494;-71
2023/09/04 03:24:51;;;;;;;56.57;2.40;;;;;;;;;;5063565;28;20471;-69
2023/09/04 03:27:18;;;;;;;57.00;2.63;;;;;;;;;;5070394;28;20459;-70
2023/09/04 03:29:45;;;;;;;56.80;2.73;;;;;;;;;;5070306;28;20457;-69
2023/09/04 03:32:13;;;;;;;56.73;2.80;;;;;;;;;;5064864;28;20448;-69
2023/09/04 03:34:40;;;;;;;56.73;2.60;;;;;;;;;;5062413;28;20558;-69
2023/09/04 03:37:07;;;;;;;57.93;3.10;;;;;;;;;;5070324;28;20962;-69
2023/09/04 03:39:37;;;;;;;57.60;3.37;;;;;;;;;;5070514;28;20457;-69
2023/09/04 03:42:04;;;;;;;56.70;2.50;;;;;;;;;;5070231;28;20494;-69
2023/09/04 03:44:31;;;;;;;56.80;2.50;;;;;;;;;;5070260;28;20463;-70
2023/09/04 03:46:58;;;;;;;56.47;2.43;;;;;;;;;;5070394;28;20451;-69
2023/09/04 03:49:25;;;;;;;57.20;2.80;;;;;;;;;;5070555;28;20883;-70
2023/09/04 03:51:52;;;;;;;56.77;2.47;;;;;;;;;;5070267;28;20451;-69
2023/09/04 03:54:19;;;;;;;56.90;3.00;;;;;;;;;;5070258;28;20466;-70
2023/09/04 03:56:48;;;;;;;56.87;2.50;;;;;;;;;;5070250;28;20448;-72
2023/09/04 03:59:15;;;;;;;56.57;2.37;;;;;;;;;;5067222;28;20452;-71
2023/09/04 04:01:43;;;;;;;57.30;2.70;;;;;;;;;;5067343;28;20645;-69
2023/09/04 04:04:10;;;;;;;56.57;2.40;;;;;;;;;;5067503;28;20952;-71
2023/09/04 04:06:37;;;;;;;56.77;2.43;;;;;;;;;;5067493;28;20458;-70
2023/09/04 04:09:06;;;;;;;57.67;2.97;;;;;;;;;;5070333;28;20530;-69
2023/09/04 04:11:33;;;;;;;56.93;2.97;;;;;;;;;;5070034;28;20446;-69
2023/09/04 04:14:02;;;;;;;57.00;2.60;;;;;;;;;;5070135;28;20454;-70
2023/09/04 04:16:32;;;;;;;57.10;2.50;;;;;;;;;;5070247;28;20497;-69
2023/09/04 04:18:59;;;;;;;56.90;2.60;;;;;;;;;;5067557;28;20455;-68
2023/09/04 04:21:26;;;;;;;57.00;3.00;;;;;;;;;;5069979;28;20483;-69
2023/09/04 04:23:53;;;;;;;56.90;2.50;;;;;;;;;;5069866;28;20453;-69
2023/09/04 04:26:20;;;;;;;56.77;2.50;;;;;;;;;;5069792;28;20471;-69
2023/09/04 04:28:47;;;;;;;57.00;2.80;;;;;;;;;;5071986;28;21067;-69
2023/09/04 04:31:16;;;;;;;58.87;3.10;;;;;;;;;;5073833;28;20443;-69
2023/09/04 04:33:43;;;;;;;58.03;2.73;;;;;;;;;;5073070;28;20439;-70
2023/09/04 04:36:10;;;;;;;57.40;3.47;;;;;;;;;;5072755;28;20489;-70
2023/09/04 04:38:37;;;;;;;56.60;2.30;;;;;;;;;;5073674;28;20479;-69
2023/09/04 04:41:04;;;;;;;56.77;2.47;;;;;;;;;;5073556;28;20931;-69
2023/09/04 04:43:31;;;;;;;56.80;2.60;;;;;;;;;;5073475;28;20455;-69
2023/09/04 04:45:59;;;;;;;57.07;2.80;;;;;;;;;;5073516;28;20507;-69
2023/09/04 04:48:27;;;;;;;56.97;2.73;;;;;;;;;;5073658;28;20789;-69
2023/09/04 04:50:54;;;;;;;57.33;2.90;;;;;;;;;;5073569;28;20571;-72
2023/09/04 04:53:21;;;;;;;56.57;2.50;;;;;;;;;;5073159;28;20450;-69
2023/09/04 04:55:48;;;;;;;56.63;2.43;;;;;;;;;;5073271;28;20468;-71
2023/09/04 04:58:15;;;;;;;57.00;2.93;;;;;;;;;;5073486;28;20461;-69
2023/09/04 05:00:42;;;;;;;57.10;3.03;;;;;;;;;;5073213;28;20538;-71
2023/09/04 05:03:10;;;;;;;56.67;2.40;;;;;;;;;;5073133;28;20480;-69
2023/09/04 05:05:38;;;;;;;59.00;3.33;;;;;;;;;;5072976;28;20506;-70
2023/09/04 05:08:05;;;;;;;57.20;2.73;;;;;;;;;;5073067;28;20459;-69
2023/09/04 05:10:32;;;;;;;56.80;2.50;;;;;;;;;;5073277;28;20443;-69
2023/09/04 05:12:59;;;;;;;57.10;3.03;;;;;;;;;;5072952;28;20805;-69
2023/09/04 05:15:26;;;;;;;56.97;2.70;;;;;;;;;;5072927;28;20661;-70
2023/09/04 05:17:54;;;;;;;56.70;2.40;;;;;;;;;;5073019;28;20973;-69
2023/09/04 05:20:21;;;;;;;57.43;3.27;;;;;;;;;;5072876;28;20454;-69
2023/09/04 05:22:49;;;;;;;56.77;2.30;;;;;;;;;;5072682;28;20483;-69
2023/09/04 05:25:16;;;;;;;57.00;2.60;;;;;;;;;;5065657;28;20471;-69
2023/09/04 05:27:45;;;;;;;56.77;2.60;;;;;;;;;;5070159;28;20447;-70
2023/09/04 05:30:12;;;;;;;57.37;3.03;;;;;;;;;;5071186;28;20447;-69
2023/09/04 05:32:39;;;;;;;56.57;2.33;;;;;;;;;;5064653;28;20462;-70
2023/09/04 05:35:07;;;;;;;56.80;2.50;;;;;;;;;;5072531;28;20463;-69
2023/09/04 05:37:34;;;;;;;57.07;2.40;;;;;;;;;;5072702;28;20471;-69
2023/09/04 05:40:03;;;;;;;57.23;2.70;;;;;;;;;;5067221;28;20448;-69
2023/09/04 05:42:30;;;;;;;57.30;3.23;;;;;;;;;;5070848;28;20530;-69
2023/09/04 05:44:57;;;;;;;57.30;2.50;;;;;;;;;;5072373;28;20474;-70
2023/09/04 05:47:24;;;;;;;56.53;2.33;;;;;;;;;;5072290;28;20451;-69
2023/09/04 05:49:51;;;;;;;56.80;2.70;;;;;;;;;;5072559;28;20451;-69
2023/09/04 05:52:18;;;;;;;56.77;2.50;;;;;;;;;;5072062;28;20440;-69
2023/09/04 05:54:45;;;;;;;56.70;2.40;;;;;;;;;;5072239;28;21005;-69
2023/09/04 05:57:14;;;;;;;56.90;2.50;;;;;;;;;;5072366;28;20455;-69
2023/09/04 05:59:41;;;;;;;56.87;2.80;;;;;;;;;;5072200;28;20867;-69
2023/09/04 06:02:08;;;;;;;57.30;3.13;;;;;;;;;;5071700;28;20487;-72
2023/09/04 06:04:35;;;;;;;56.50;2.50;;;;;;;;;;5072130;28;20529;-69
2023/09/04 06:07:04;;;;;;;56.67;2.60;;;;;;;;;;5072138;28;20451;-69
2023/09/04 06:09:32;;;;;;;57.40;2.97;;;;;;;;;;5071947;28;20448;-69
2023/09/04 06:11:59;;;;;;;56.97;2.60;;;;;;;;;;5071618;28;20448;-68
2023/09/04 06:14:28;;;;;;;57.10;3.03;;;;;;;;;;5071818;28;20464;-70
2023/09/04 06:16:55;;;;;;;57.50;3.20;;;;;;;;;;5071774;28;20462;-69
2023/09/04 06:19:22;;;;;;;57.13;4.10;;;;;;;;;;5072069;28;20447;-67
2023/09/04 06:21:49;;;;;;;56.40;2.40;;;;;;;;;;5071634;28;20522;-67
2023/09/04 06:24:16;;;;;;;57.17;3.00;;;;;;;;;;5072056;28;20446;-67
2023/09/04 06:26:43;;;;;;;56.40;2.53;;;;;;;;;;5071613;28;20461;-67
2023/09/04 06:29:10;;;;;;;56.67;2.57;;;;;;;;;;5071467;28;20944;-67
2023/09/04 06:31:40;;;;;;;56.90;3.43;;;;;;;;;;5071846;28;20443;-68
2023/09/04 06:34:07;;;;;;;56.37;2.43;;;;;;;;;;5071683;28;20534;-71
2023/09/04 06:36:34;;;;;;;56.50;2.33;;;;;;;;;;5071396;28;20462;-68
2023/09/04 06:39:03;;;;;;;56.43;2.40;;;;;;;;;;5071548;28;20838;-69
2023/09/04 06:41:30;;;;;;;57.00;2.90;;;;;;;;;;5071176;28;20444;-69
2023/09/04 06:43:57;;;;;;;56.60;2.30;;;;;;;;;;5070889;28;20999;-67
2023/09/04 06:46:24;;;;;;;56.90;2.93;;;;;;;;;;5071431;28;20465;-67
2023/09/04 06:48:52;;;;;;;56.43;2.93;;;;;;;;;;5071437;28;20512;-66
2023/09/04 06:51:19;;;;;;;57.00;3.27;;;;;;;;;;5071145;28;20454;-69
2023/09/04 06:53:47;;;;;;;57.07;3.20;;;;;;;;;;5070961;28;20444;-67
2023/09/04 06:56:14;;;;;;;57.57;3.37;;;;;;;;;;5070963;28;20475;-67
2023/09/04 06:58:41;;;;;;;57.37;2.97;;;;;;;;;;5071236;28;20443;-67
2023/09/04 07:01:08;;;;;;;57.10;2.57;;;;;;;;;;5071506;28;20443;-68
2023/09/04 07:03:35;;;;;;;56.80;2.77;;;;;;;;;;5070758;28;20573;-67
2023/09/04 07:06:03;;;;;;;56.47;2.90;;;;;;;;;;5071054;28;20487;-68
2023/09/04 07:08:31;;;;;;;56.70;2.67;;;;;;;;;;5071196;28;20450;-68
2023/09/04 07:10:58;;;;;;;56.60;2.30;;;;;;;;;;5070965;28;20978;-69
2023/09/04 07:13:25;;;;;;;59.07;3.40;;;;;;;;;;5070878;28;20525;-68
2023/09/04 07:15:53;;;;;;;57.00;3.10;;;;;;;;;;5071120;28;20468;-68
2023/09/04 07:18:20;;;;;;;57.30;3.53;;;;;;;;;;5070902;28;20537;-68
2023/09/04 07:20:47;;;;;;;56.70;2.60;;;;;;;;;;5071101;28;20440;-69
2023/09/04 07:23:15;;;;;;;56.57;2.50;;;;;;;;;;5070514;28;20490;-69
2023/09/04 07:25:42;;;;;;;58.00;2.73;;;;;;;;;;5066277;28;20562;-71
2023/09/04 07:28:09;;;;;;;56.70;2.73;;;;;;;;;;5070933;28;20439;-69
2023/09/04 07:30:36;;;;;;;56.20;2.30;;;;;;;;;;5070691;28;20800;-70
2023/09/04 07:33:04;;;;;;;56.60;2.40;;;;;;;;;;5070554;28;20512;-68
2023/09/04 07:35:31;;;;;;;56.63;2.87;;;;;;;;;;5070722;28;20550;-70
2023/09/04 07:37:58;;;;;;;57.00;2.90;;;;;;;;;;5070936;28;20454;-69
2023/09/04 07:40:27;;;;;;;56.60;2.80;;;;;;;;;;5070661;28;20931;-68
2023/09/04 07:42:54;;;;;;;56.90;2.67;;;;;;;;;;5070396;28;20803;-69
2023/09/04 07:45:23;;;;;;;56.17;2.17;;;;;;;;;;5070660;28;20463;-71
2023/09/04 07:47:51;;;;;;;57.17;2.87;;;;;;;;;;5070699;28;20451;-69
2023/09/04 07:50:18;;;;;;;58.87;4.77;;;;;;;;;;5070577;28;20449;-69
2023/09/04 07:52:45;;;;;;;56.50;2.20;;;;;;;;;;5070349;28;20450;-71
2023/09/04 07:55:12;;;;;;;56.37;2.50;;;;;;;;;;5070555;28;21009;-69
2023/09/04 07:57:40;;;;;;;56.60;2.83;;;;;;;;;;5070652;28;20454;-72
2023/09/04 08:00:08;;;;;;;56.80;2.57;;;;;;;;;;5070640;28;20449;-69
2023/09/04 08:02:35;;;;;;;57.10;2.77;;;;;;;;;;5070191;28;20479;-72
2023/09/04 08:05:02;;;;;;;56.20;2.33;;;;;;;;;;5074127;28;20463;-69
2023/09/04 08:07:29;;;;;;;56.17;2.07;;;;;;;;;;5074213;28;20443;-70
2023/09/04 08:09:58;;;;;;;57.30;3.60;;;;;;;;;;5074502;28;20834;-69
2023/09/04 08:12:25;;;;;;;56.50;2.80;;;;;;;;;;5074366;28;21041;-69
2023/09/04 08:14:54;;;;;;;56.47;2.40;;;;;;;;;;5074195;28;20473;-69
2023/09/04 08:17:21;;;;;;;57.20;2.80;;;;;;;;;;5074082;28;20958;-69
2023/09/04 08:19:48;;;;;;;57.07;2.67;;;;;;;;;;5074133;28;20451;-70
2023/09/04 08:22:15;;;;;;;56.40;2.43;;;;;;;;;;5073705;28;20451;-68
2023/09/04 08:24:42;;;;;;;56.23;2.27;;;;;;;;;;5073983;28;20473;-70
2023/09/04 08:27:09;;;;;;;56.50;2.20;;;;;;;;;;5074122;28;20442;-69
2023/09/04 08:29:36;;;;;;;56.40;2.30;;;;;;;;;;5073936;28;20830;-70
2023/09/04 08:32:05;;;;;;;56.80;3.27;;;;;;;;;;5073516;28;20453;-70
2023/09/04 08:34:32;;;;;;;56.47;2.40;;;;;;;;;;5073924;28;20825;-71
2023/09/04 08:36:59;;;;;;;56.57;2.47;;;;;;;;;;5073739;28;20461;-69
2023/09/04 08:39:26;;;;;;;56.70;2.67;;;;;;;;;;5073795;28;20948;-70
2023/09/04 08:41:54;;;;;;;57.00;2.93;;;;;;;;;;5073271;28;20939;-70
2023/09/04 08:44:21;;;;;;;56.70;2.37;;;;;;;;;;5073405;28;20497;-71
2023/09/04 08:46:48;;;;;;;56.50;2.90;;;;;;;;;;5073463;28;20479;-70
2023/09/04 08:49:17;;;;;;;59.73;2.50;;;;;;;;;;5073676;28;20447;-72
2023/09/04 08:51:44;;;;;;;56.70;2.90;;;;;;;;;;5073543;28;20435;-70
2023/09/04 08:54:12;;;;;;;56.27;2.30;;;;;;;;;;5073371;28;20931;-71
2023/09/04 08:56:39;;;;;;;56.20;2.40;;;;;;;;;;5073294;28;20447;-70
2023/09/04 08:59:06;;;;;;;57.77;3.17;;;;;;;;;;5073328;28;20446;-70
2023/09/04 09:01:33;;;;;;;56.33;2.13;;;;;;;;;;5073220;28;20458;-70
2023/09/04 09:04:02;;;;;;;56.60;2.20;;;;;;;;;;5073321;28;20499;-70
2023/09/04 09:06:30;;;;;;;56.60;2.47;;;;;;;;;;5073188;28;20460;-70
2023/09/04 09:08:58;;;;;;;55.97;2.10;;;;;;;;;;5073448;28;20435;-70
2023/09/04 09:11:25;;;;;;;56.67;2.33;;;;;;;;;;5073234;28;20951;-71
2023/09/04 09:13:52;;;;;;;57.10;2.80;;;;;;;;;;5072606;28;20439;-69
2023/09/04 09:16:20;;;;;;;56.23;2.37;;;;;;;;;;5073145;28;20494;-71
2023/09/04 09:18:48;;;;;;;56.80;2.20;;;;;;;;;;5072884;28;20966;-70
2023/09/04 09:21:25;;;;;;;56.67;2.30;;;;;;;;;;5073117;28;20461;-69
2023/09/04 09:24:10;;;;;;;56.70;2.30;;;;;;;;;;5069916;28;20494;-70
2023/09/04 09:26:38;;;;;;;56.37;2.50;;;;;;;;;;5071062;28;20818;-70
2023/09/04 09:29:07;;;;;;;56.57;2.37;;;;;;;;;;5071807;28;20454;-70
2023/09/04 09:31:34;;;;;;;56.27;2.10;;;;;;;;;;5070762;28;20502;-70
2023/09/04 09:34:01;;;;;;;56.37;2.37;;;;;;;;;;5073056;28;20803;-69
2023/09/04 09:36:29;;;;;;;59.03;2.40;;;;;;;;;;5072480;28;20479;-70
2023/09/04 09:38:57;;;;;;;56.70;2.50;;;;;;;;;;5072984;28;20439;-70
2023/09/04 09:41:26;;;;;;;56.70;2.13;;;;;;;;;;5072729;28;20465;-69
2023/09/04 09:43:54;;;;;;;55.97;2.30;;;;;;;;;;5072232;28;20479;-69
2023/09/04 09:46:21;;;;;;;57.00;2.13;;;;;;;;;;5072407;28;20471;-69
2023/09/04 09:48:49;;;;;;;56.30;2.17;;;;;;;;;;5072397;28;20439;-70
2023/09/04 09:51:16;;;;;;;56.73;2.27;;;;;;;;;;5072301;28;20439;-69
2023/09/04 09:53:47;;;;;;;56.30;2.20;;;;;;;;;;5072241;28;20789;-70
2023/09/04 09:56:15;;;;;;;56.60;2.60;;;;;;;;;;5072277;28;20469;-69
2023/09/04 09:58:44;;;;;;;56.60;2.30;;;;;;;;;;5072499;28;20826;-70
2023/09/04 10:01:12;;;;;;;56.20;2.20;;;;;;;;;;5072201;28;20554;-71
2023/09/04 10:03:39;;;;;;;56.47;2.23;;;;;;;;;;5071699;28;20490;-70
2023/09/04 10:06:08;;;;;;;56.17;1.87;;;;;;;;;;5072149;28;20505;-70
2023/09/04 10:08:38;;;;;;;56.90;2.53;;;;;;;;;;5072176;28;20831;-69
2023/09/04 10:11:07;;;;;;;56.07;2.13;;;;;;;;;;5072131;28;20456;-70
2023/09/04 10:13:38;;;;;;;56.20;2.47;;;;;;;;;;5071722;28;20435;-70
2023/09/04 10:16:08;;;;;;;56.63;2.33;;;;;;;;;;5071796;28;21000;-71
2023/09/04 10:18:37;;;;;;;56.10;1.97;;;;;;;;;;5071094;28;20918;-70
2023/09/04 10:21:07;;;;;;;56.10;2.20;;;;;;;;;;5071683;28;20931;-70
2023/09/04 10:23:38;;;;;;;55.50;2.00;;;;;;;;;;5070527;28;21089;-68
2023/09/04 10:26:07;;;;;;;55.87;1.87;;;;;;;;;;5070884;28;20459;-68
2023/09/04 10:28:37;;;;;;;55.63;2.70;;;;;;;;;;5071447;28;20856;-69
2023/09/04 10:31:05;;;;;;;55.40;2.03;;;;;;;;;;5071911;28;20432;-68
2023/09/04 10:33:33;;;;;;;55.40;1.60;;;;;;;;;;5071345;28;20567;-70
2023/09/04 10:36:01;;;;;;;55.30;2.07;;;;;;;;;;5071285;28;20477;-69
2023/09/04 10:38:29;;;;;;;55.47;1.77;;;;;;;;;;5071159;28;20786;-68
2023/09/04 10:40:56;;;;;;;55.50;2.13;;;;;;;;;;5071345;28;20534;-68
2023/09/04 10:43:23;;;;;;;55.57;2.23;;;;;;;;;;5070817;28;20493;-69
2023/09/04 10:46:05;;;;;;;55.40;2.10;;;;;;;;;;5071336;28;20486;-69
2023/09/04 10:48:43;;;;;;;55.57;2.30;;;;;;;;;;5071315;28;20535;-68
2023/09/04 10:51:30;;;;;;;55.00;1.90;;;;;;;;;;5071291;28;20454;-68
2023/09/04 10:53:57;;;;;;;55.70;1.83;;;;;;;;;;5070496;28;20466;-69
2023/09/04 10:56:24;;;;;;;55.57;2.17;;;;;;;;;;5070688;28;20463;-71
2023/09/04 10:59:00;;;;;;;55.20;1.80;;;;;;;;;;5071334;28;20444;-69
2023/09/04 11:01:36;;;;;;;55.63;2.07;;;;;;;;;;5071044;28;20834;-70
2023/09/04 11:04:06;;;;;;;55.07;1.80;;;;;;;;;;5070668;28;20482;-69
2023/09/04 11:06:37;;;;;;;55.53;2.13;;;;;;;;;;5071152;28;20450;-70
2023/09/04 11:09:05;;;;;;;55.50;1.97;;;;;;;;;;5070380;28;20946;-71
2023/09/04 11:11:32;;;;;;;55.17;1.73;;;;;;;;;;5070894;28;20527;-69
2023/09/04 11:14:00;;;;;;;54.80;1.67;;;;;;;;;;5070655;28;20443;-69
2023/09/04 11:16:28;;;;;;;55.00;1.73;;;;;;;;;;5070756;28;20481;-69
2023/09/04 11:19:02;;;;;;;54.77;1.80;;;;;;;;;;5070688;28;20447;-69
2023/09/04 11:21:34;;;;;;;55.17;1.90;;;;;;;;;;5070981;28;20465;-70
2023/09/04 11:24:03;;;;;;;55.37;1.93;;;;;;;;;;5067519;28;20492;-69
2023/09/04 11:26:30;;;;;;;54.97;1.60;;;;;;;;;;5069923;28;20466;-69
2023/09/04 11:28:59;;;;;;;55.07;2.17;;;;;;;;;;5070649;28;20450;-69
2023/09/04 11:31:27;;;;;;;54.90;1.73;;;;;;;;;;5070949;28;20828;-69
2023/09/04 11:33:55;;;;;;;54.90;1.77;;;;;;;;;;5070884;28;20443;-70
2023/09/04 11:36:22;;;;;;;55.73;2.10;;;;;;;;;;5070517;28;20890;-69
2023/09/04 11:38:51;;;;;;;55.10;2.10;;;;;;;;;;5072941;28;20454;-71
2023/09/04 11:41:19;;;;;;;54.97;1.67;;;;;;;;;;5074789;28;20524;-70
2023/09/04 11:43:47;;;;;;;55.10;1.60;;;;;;;;;;5074333;28;20483;-69
2023/09/04 11:46:14;;;;;;;54.77;1.40;;;;;;;;;;5074727;28;20482;-69
2023/09/04 11:48:41;;;;;;;55.33;2.17;;;;;;;;;;5074653;28;20450;-69
2023/09/04 11:51:11;;;;;;;55.20;1.93;;;;;;;;;;5074792;28;20916;-69
2023/09/04 11:53:38;;;;;;;54.70;1.80;;;;;;;;;;5074198;28;20538;-70
2023/09/04 11:56:07;;;;;;;55.10;2.10;;;;;;;;;;5074416;28;20470;-70
2023/09/04 11:58:34;;;;;;;54.97;1.90;;;;;;;;;;5074389;28;20530;-70
2023/09/04 12:01:02;;;;;;;56.30;2.57;;;;;;;;;;5074603;28;20439;-69
2023/09/04 12:03:29;;;;;;;57.00;2.20;;;;;;;;;;5074004;28;20489;-70
2023/09/04 12:05:57;;;;;;;55.13;2.10;;;;;;;;;;5074205;28;20459;-73
2023/09/04 12:08:24;;;;;;;54.90;1.90;;;;;;;;;;5074279;28;20448;-73
2023/09/04 12:10:51;;;;;;;54.43;1.70;;;;;;;;;;5074562;28;20447;-70
2023/09/04 12:13:20;;;;;;;54.57;1.60;;;;;;;;;;5074093;28;20450;-70
2023/09/04 12:15:48;;;;;;;54.63;1.90;;;;;;;;;;5073861;28;20963;-70
2023/09/04 12:18:15;;;;;;;54.70;1.63;;;;;;;;;;5074290;28;20529;-69
2023/09/04 12:20:43;;;;;;;54.87;2.00;;;;;;;;;;5074123;28;20998;-69
2023/09/04 12:23:11;;;;;;;54.40;2.03;;;;;;;;;;5073647;28;20494;-70
2023/09/04 12:25:39;;;;;;;54.57;2.00;;;;;;;;;;5073631;28;20483;-69
2023/09/04 12:28:06;;;;;;;54.60;1.77;;;;;;;;;;5074005;28;20443;-69
2023/09/04 12:30:36;;;;;;;55.17;2.20;;;;;;;;;;5073947;28;20457;-69
2023/09/04 12:33:04;;;;;;;54.90;1.80;;;;;;;;;;5073633;28;20443;-70
2023/09/04 12:35:31;;;;;;;54.90;1.97;;;;;;;;;;5073529;28;20463;-69
2023/09/04 12:37:58;;;;;;;54.47;1.63;;;;;;;;;;5073634;28;20974;-71
2023/09/04 12:40:26;;;;;;;54.80;2.07;;;;;;;;;;5073810;28;20443;-69
2023/09/04 12:42:53;;;;;;;59.70;2.50;;;;;;;;;;5073264;28;20443;-70
2023/09/04 12:45:20;;;;;;;54.90;2.27;;;;;;;;;;5073305;28;20487;-69
2023/09/04 12:47:48;;;;;;;54.87;2.10;;;;;;;;;;5073587;28;20947;-71
2023/09/04 12:50:15;;;;;;;54.63;1.90;;;;;;;;;;5072817;28;20447;-69
2023/09/04 12:52:47;;;;;;;55.20;2.10;;;;;;;;;;5073251;28;20800;-68
2023/09/04 12:55:14;;;;;;;54.90;2.00;;;;;;;;;;5073529;28;20554;-69
2023/09/04 12:57:41;;;;;;;55.07;2.37;;;;;;;;;;5073558;28;20446;-70
2023/09/04 13:00:09;;;;;;;55.07;2.07;;;;;;;;;;5073502;28;20471;-70
2023/09/04 13:02:37;;;;;;;54.70;1.97;;;;;;;;;;5073074;28;20439;-69
2023/09/04 13:05:06;;;;;;;55.00;2.20;;;;;;;;;;5073092;28;20496;-69
2023/09/04 13:07:34;;;;;;;54.47;1.77;;;;;;;;;;5073416;28;20619;-68
2023/09/04 13:10:01;;;;;;;54.77;1.90;;;;;;;;;;5073109;28;20479;-69
2023/09/04 13:12:28;;;;;;;54.67;1.90;;;;;;;;;;5072872;28;20447;-70
2023/09/04 13:14:55;;;;;;;54.50;1.90;;;;;;;;;;5073069;28;20988;-70
2023/09/04 13:17:22;;;;;;;55.10;2.80;;;;;;;;;;5072889;28;20486;-70
2023/09/04 13:19:49;;;;;;;54.87;1.90;;;;;;;;;;5072820;28;20454;-69
2023/09/04 13:22:18;;;;;;;54.87;2.30;;;;;;;;;;5072839;28;20457;-69
2023/09/04 13:24:45;;;;;;;55.70;2.00;;;;;;;;;;5068633;28;20491;-70
2023/09/04 13:27:13;;;;;;;54.67;1.90;;;;;;;;;;5072545;28;20939;-70
2023/09/04 13:29:40;;;;;;;54.60;1.70;;;;;;;;;;5069735;28;20502;-70
2023/09/04 13:32:07;;;;;;;54.80;1.97;;;;;;;;;;5072336;28;20443;-69
2023/09/04 13:34:34;;;;;;;54.37;1.73;;;;;;;;;;5072630;28;20471;-72
2023/09/04 13:37:01;;;;;;;56.07;2.50;;;;;;;;;;5072302;28;20451;-69
2023/09/04 13:39:30;;;;;;;54.50;2.00;;;;;;;;;;5072700;28;20833;-72
2023/09/04 13:41:57;;;;;;;54.67;1.77;;;;;;;;;;5072313;28;20871;-70
2023/09/04 13:44:25;;;;;;;54.60;1.90;;;;;;;;;;5072380;28;20483;-68
2023/09/04 13:46:52;;;;;;;55.10;2.10;;;;;;;;;;5072282;28;20501;-68
2023/09/04 13:49:19;;;;;;;56.60;2.53;;;;;;;;;;5072123;28;20450;-69
2023/09/04 13:51:46;;;;;;;54.40;1.70;;;;;;;;;;5072114;28;20957;-69
2023/09/04 13:54:13;;;;;;;54.47;1.90;;;;;;;;;;5072307;28;20452;-71
2023/09/04 13:56:42;;;;;;;54.57;1.80;;;;;;;;;;5072488;28;20454;-70
2023/09/04 13:59:09;;;;;;;54.80;1.80;;;;;;;;;;5072104;28;20490;-71
2023/09/04 14:01:36;;;;;;;54.67;1.70;;;;;;;;;;5071326;28;20444;-70
2023/09/04 14:04:04;;;;;;;54.70;2.00;;;;;;;;;;5072162;28;20482;-70
2023/09/04 14:06:31;;;;;;;54.70;1.70;;;;;;;;;;5072090;28;20885;-74
2023/09/04 14:08:58;;;;;;;54.70;2.00;;;;;;;;;;5072000;28;20547;-71
2023/09/04 14:11:25;;;;;;;54.67;2.00;;;;;;;;;;5072183;28;20845;-72
2023/09/04 14:13:54;;;;;;;55.00;2.07;;;;;;;;;;5072061;28;20810;-70
2023/09/04 14:16:21;;;;;;;55.10;2.30;;;;;;;;;;5071905;28;20504;-70
2023/09/04 14:18:50;;;;;;;55.40;2.30;;;;;;;;;;5071776;28;20957;-70
2023/09/04 14:21:17;;;;;;;54.90;2.00;;;;;;;;;;5071861;28;20779;-70
2023/09/04 14:23:45;;;;;;;55.70;2.70;;;;;;;;;;5071533;28;20451;-69
2023/09/04 14:26:12;;;;;;;54.90;1.90;;;;;;;;;;5071366;28;20497;-68
2023/09/04 14:28:39;;;;;;;54.57;1.77;;;;;;;;;;5071833;28;20537;-69
2023/09/04 14:31:14;;;;;;;55.50;2.33;;;;;;;;;;5071537;28;20447;-69
2023/09/04 14:33:41;;;;;;;54.60;1.70;;;;;;;;;;5071311;28;20925;-68